sensor_id;sensor_type;location;lat;lon;timestamp;P1;durP1;ratioP1;P2;durP2;ratioP2
21639;SDS011;10981;45.462;10.974;2023-01-10T00:02:11;11.13;;;7.55;;
21639;SDS011;10981;45.462;10.974;2023-01-10T00:04:39;12.93;;;8.23;;
21639;SDS011;10981;45.462;10.974;2023-01-10T00:07:08;12.77;;;7.55;;
21639;SDS011;10981;45.462;10.974;2023-01-10T00:09:36;12.57;;;7.65;;
21639;SDS011;10981;45.462;10.974;2023-01-10T00:12:04;9.65;;;6.85;;
21639;SDS011;10981;45.462;10.974;2023-01-10T00:14:51;12.85;;;7.75;;
21639;SDS011;10981;45.462;10.974;2023-01-10T00:17:19;13.20;;;7.93;;
21639;SDS011;10981;45.462;10.974;2023-01-10T00:19:47;16.40;;;8.02;;
21639;SDS011;10981;45.462;10.974;2023-01-10T00:22:16;10.90;;;7.15;;
21639;SDS011;10981;45.462;10.974;2023-01-10T00:24:46;10.75;;;7.32;;
21639;SDS011;10981;45.462;10.974;2023-01-10T00:27:17;13.40;;;7.57;;
21639;SDS011;10981;45.462;10.974;2023-01-10T00:29:48;14.57;;;8.88;;
21639;SDS011;10981;45.462;10.974;2023-01-10T00:32:18;17.65;;;9.95;;
21639;SDS011;10981;45.462;10.974;2023-01-10T00:34:48;16.92;;;10.93;;
21639;SDS011;10981;45.462;10.974;2023-01-10T00:37:16;18.75;;;10.77;;
21639;SDS011;10981;45.462;10.974;2023-01-10T00:39:44;22.48;;;11.85;;
21639;SDS011;10981;45.462;10.974;2023-01-10T00:42:12;22.42;;;12.15;;
21639;SDS011;10981;45.462;10.974;2023-01-10T00:44:59;18.83;;;11.63;;
21639;SDS011;10981;45.462;10.974;2023-01-10T00:47:27;16.75;;;11.60;;
21639;SDS011;10981;45.462;10.974;2023-01-10T00:49:55;20.20;;;11.15;;
21639;SDS011;10981;45.462;10.974;2023-01-10T00:52:24;18.38;;;11.73;;
21639;SDS011;10981;45.462;10.974;2023-01-10T00:54:52;20.52;;;11.98;;
21639;SDS011;10981;45.462;10.974;2023-01-10T00:57:20;20.80;;;11.07;;
21639;SDS011;10981;45.462;10.974;2023-01-10T00:59:48;15.65;;;10.68;;
21639;SDS011;10981;45.462;10.974;2023-01-10T01:02:16;15.90;;;10.90;;
21639;SDS011;10981;45.462;10.974;2023-01-10T01:04:45;16.13;;;10.73;;
21639;SDS011;10981;45.462;10.974;2023-01-10T01:07:13;15.73;;;10.32;;
21639;SDS011;10981;45.462;10.974;2023-01-10T01:09:41;21.98;;;11.63;;
21639;SDS011;10981;45.462;10.974;2023-01-10T01:12:28;18.73;;;11.82;;
21639;SDS011;10981;45.462;10.974;2023-01-10T01:14:56;23.10;;;13.10;;
21639;SDS011;10981;45.462;10.974;2023-01-10T01:17:25;18.10;;;12.10;;
21639;SDS011;10981;45.462;10.974;2023-01-10T01:19:53;18.30;;;12.30;;
21639;SDS011;10981;45.462;10.974;2023-01-10T01:22:21;19.45;;;11.95;;
21639;SDS011;10981;45.462;10.974;2023-01-10T01:24:49;20.42;;;12.38;;
21639;SDS011;10981;45.462;10.974;2023-01-10T01:27:18;18.73;;;12.50;;
21639;SDS011;10981;45.462;10.974;2023-01-10T01:29:47;21.02;;;11.55;;
21639;SDS011;10981;45.462;10.974;2023-01-10T01:32:15;22.83;;;13.13;;
21639;SDS011;10981;45.462;10.974;2023-01-10T01:34:45;19.55;;;11.55;;
21639;SDS011;10981;45.462;10.974;2023-01-10T01:37:13;18.73;;;12.15;;
21639;SDS011;10981;45.462;10.974;2023-01-10T01:39:42;18.77;;;12.68;;
21639;SDS011;10981;45.462;10.974;2023-01-10T01:42:47;21.02;;;12.85;;
21639;SDS011;10981;45.462;10.974;2023-01-10T01:53:39;19.83;;;11.35;;
21639;SDS011;10981;45.462;10.974;2023-01-10T01:59:10;17.95;;;10.55;;
21639;SDS011;10981;45.462;10.974;2023-01-10T02:02:01;22.77;;;11.70;;
21639;SDS011;10981;45.462;10.974;2023-01-10T02:04:45;17.52;;;10.95;;
21639;SDS011;10981;45.462;10.974;2023-01-10T02:07:18;15.70;;;10.57;;
21639;SDS011;10981;45.462;10.974;2023-01-10T02:09:55;14.93;;;9.70;;
21639;SDS011;10981;45.462;10.974;2023-01-10T02:12:31;15.02;;;8.93;;
21639;SDS011;10981;45.462;10.974;2023-01-10T02:15:00;15.32;;;9.88;;
21639;SDS011;10981;45.462;10.974;2023-01-10T02:17:30;15.27;;;9.00;;
21639;SDS011;10981;45.462;10.974;2023-01-10T02:20:02;13.60;;;9.10;;
21639;SDS011;10981;45.462;10.974;2023-01-10T02:34:13;12.73;;;8.45;;
21639;SDS011;10981;45.462;10.974;2023-01-10T02:42:24;15.23;;;10.02;;
21639;SDS011;10981;45.462;10.974;2023-01-10T02:50:28;17.55;;;10.20;;
21639;SDS011;10981;45.462;10.974;2023-01-10T02:53:20;27.40;;;14.90;;
21639;SDS011;10981;45.462;10.974;2023-01-10T03:04:27;15.82;;;9.63;;
21639;SDS011;10981;45.462;10.974;2023-01-10T03:09:51;13.25;;;8.93;;
21639;SDS011;10981;45.462;10.974;2023-01-10T03:12:30;12.55;;;8.45;;
21639;SDS011;10981;45.462;10.974;2023-01-10T03:15:18;12.52;;;7.57;;
21639;SDS011;10981;45.462;10.974;2023-01-10T03:17:49;10.82;;;6.78;;
21639;SDS011;10981;45.462;10.974;2023-01-10T03:20:21;12.20;;;6.78;;
21639;SDS011;10981;45.462;10.974;2023-01-10T03:22:51;10.70;;;5.75;;
21639;SDS011;10981;45.462;10.974;2023-01-10T03:25:23;8.77;;;6.60;;
21639;SDS011;10981;45.462;10.974;2023-01-10T03:27:59;9.43;;;5.38;;
21639;SDS011;10981;45.462;10.974;2023-01-10T03:30:45;10.50;;;5.32;;
21639;SDS011;10981;45.462;10.974;2023-01-10T03:33:37;9.88;;;5.90;;
21639;SDS011;10981;45.462;10.974;2023-01-10T03:38:53;8.15;;;5.85;;
21639;SDS011;10981;45.462;10.974;2023-01-10T03:41:32;14.60;;;5.65;;
21639;SDS011;10981;45.462;10.974;2023-01-10T03:49:58;8.32;;;5.13;;
21639;SDS011;10981;45.462;10.974;2023-01-10T03:52:34;7.30;;;4.80;;
21639;SDS011;10981;45.462;10.974;2023-01-10T03:55:03;4.80;;;3.90;;
21639;SDS011;10981;45.462;10.974;2023-01-10T03:57:34;5.43;;;3.75;;
21639;SDS011;10981;45.462;10.974;2023-01-10T04:00:02;5.30;;;3.15;;
21639;SDS011;10981;45.462;10.974;2023-01-10T04:02:31;4.30;;;3.63;;
21639;SDS011;10981;45.462;10.974;2023-01-10T04:04:59;4.18;;;3.30;;
21639;SDS011;10981;45.462;10.974;2023-01-10T04:07:27;7.43;;;3.38;;
21639;SDS011;10981;45.462;10.974;2023-01-10T04:09:56;5.60;;;3.75;;
21639;SDS011;10981;45.462;10.974;2023-01-10T04:12:25;4.18;;;3.00;;
21639;SDS011;10981;45.462;10.974;2023-01-10T04:14:53;5.63;;;3.03;;
21639;SDS011;10981;45.462;10.974;2023-01-10T04:17:21;4.75;;;3.20;;
21639;SDS011;10981;45.462;10.974;2023-01-10T04:19:50;5.32;;;2.72;;
21639;SDS011;10981;45.462;10.974;2023-01-10T04:22:18;4.20;;;2.65;;
21639;SDS011;10981;45.462;10.974;2023-01-10T04:24:46;4.95;;;3.78;;
21639;SDS011;10981;45.462;10.974;2023-01-10T04:27:17;4.75;;;3.17;;
21639;SDS011;10981;45.462;10.974;2023-01-10T04:29:46;7.43;;;3.25;;
21639;SDS011;10981;45.462;10.974;2023-01-10T04:32:14;5.25;;;3.47;;
21639;SDS011;10981;45.462;10.974;2023-01-10T04:34:43;4.95;;;2.60;;
21639;SDS011;10981;45.462;10.974;2023-01-10T04:37:11;6.45;;;3.10;;
21639;SDS011;10981;45.462;10.974;2023-01-10T04:39:41;4.22;;;2.20;;
21639;SDS011;10981;45.462;10.974;2023-01-10T04:42:09;5.70;;;1.88;;
21639;SDS011;10981;45.462;10.974;2023-01-10T04:44:38;2.92;;;1.90;;
21639;SDS011;10981;45.462;10.974;2023-01-10T04:47:06;2.85;;;2.00;;
21639;SDS011;10981;45.462;10.974;2023-01-10T04:49:34;2.67;;;2.25;;
21639;SDS011;10981;45.462;10.974;2023-01-10T04:52:02;7.30;;;2.45;;
21639;SDS011;10981;45.462;10.974;2023-01-10T04:54:31;5.80;;;2.75;;
21639;SDS011;10981;45.462;10.974;2023-01-10T04:56:59;8.63;;;3.17;;
21639;SDS011;10981;45.462;10.974;2023-01-10T04:59:27;5.35;;;2.33;;
21639;SDS011;10981;45.462;10.974;2023-01-10T05:01:56;12.00;;;2.50;;
21639;SDS011;10981;45.462;10.974;2023-01-10T05:04:25;2.97;;;2.28;;
21639;SDS011;10981;45.462;10.974;2023-01-10T05:06:53;4.32;;;2.17;;
21639;SDS011;10981;45.462;10.974;2023-01-10T05:09:21;18.58;;;2.97;;
21639;SDS011;10981;45.462;10.974;2023-01-10T05:11:49;12.48;;;2.92;;
21639;SDS011;10981;45.462;10.974;2023-01-10T05:14:20;10.48;;;2.80;;
21639;SDS011;10981;45.462;10.974;2023-01-10T05:16:49;6.53;;;2.85;;
21639;SDS011;10981;45.462;10.974;2023-01-10T05:19:17;10.27;;;3.33;;
21639;SDS011;10981;45.462;10.974;2023-01-10T05:21:45;4.97;;;2.65;;
21639;SDS011;10981;45.462;10.974;2023-01-10T05:24:13;2.97;;;2.03;;
21639;SDS011;10981;45.462;10.974;2023-01-10T05:26:42;5.00;;;2.17;;
21639;SDS011;10981;45.462;10.974;2023-01-10T05:29:10;5.93;;;3.67;;
21639;SDS011;10981;45.462;10.974;2023-01-10T05:31:40;6.70;;;2.53;;
21639;SDS011;10981;45.462;10.974;2023-01-10T05:34:10;7.90;;;2.35;;
21639;SDS011;10981;45.462;10.974;2023-01-10T05:36:39;6.43;;;2.83;;
21639;SDS011;10981;45.462;10.974;2023-01-10T05:39:07;9.65;;;2.53;;
21639;SDS011;10981;45.462;10.974;2023-01-10T05:41:35;7.45;;;2.75;;
21639;SDS011;10981;45.462;10.974;2023-01-10T05:44:04;15.18;;;2.78;;
21639;SDS011;10981;45.462;10.974;2023-01-10T05:46:32;16.00;;;2.55;;
21639;SDS011;10981;45.462;10.974;2023-01-10T05:49:01;9.80;;;2.45;;
21639;SDS011;10981;45.462;10.974;2023-01-10T05:51:29;8.65;;;2.22;;
21639;SDS011;10981;45.462;10.974;2023-01-10T05:53:57;6.97;;;2.22;;
21639;SDS011;10981;45.462;10.974;2023-01-10T05:56:25;13.07;;;4.40;;
21639;SDS011;10981;45.462;10.974;2023-01-10T05:58:55;19.95;;;2.88;;
21639;SDS011;10981;45.462;10.974;2023-01-10T06:01:37;19.45;;;3.50;;
21639;SDS011;10981;45.462;10.974;2023-01-10T06:04:05;11.00;;;2.13;;
21639;SDS011;10981;45.462;10.974;2023-01-10T06:06:34;7.10;;;2.85;;
21639;SDS011;10981;45.462;10.974;2023-01-10T06:09:02;4.90;;;2.20;;
21639;SDS011;10981;45.462;10.974;2023-01-10T06:11:30;12.88;;;2.70;;
21639;SDS011;10981;45.462;10.974;2023-01-10T06:14:02;18.02;;;3.78;;
21639;SDS011;10981;45.462;10.974;2023-01-10T06:16:31;13.95;;;2.85;;
21639;SDS011;10981;45.462;10.974;2023-01-10T06:18:59;18.42;;;4.15;;
21639;SDS011;10981;45.462;10.974;2023-01-10T06:21:28;9.93;;;2.85;;
21639;SDS011;10981;45.462;10.974;2023-01-10T06:23:56;22.40;;;3.67;;
21639;SDS011;10981;45.462;10.974;2023-01-10T06:26:24;14.25;;;2.85;;
21639;SDS011;10981;45.462;10.974;2023-01-10T06:28:52;20.70;;;4.82;;
21639;SDS011;10981;45.462;10.974;2023-01-10T06:31:21;28.00;;;4.40;;
21639;SDS011;10981;45.462;10.974;2023-01-10T06:33:49;21.08;;;3.22;;
21639;SDS011;10981;45.462;10.974;2023-01-10T06:36:18;32.03;;;4.78;;
21639;SDS011;10981;45.462;10.974;2023-01-10T06:38:46;23.15;;;4.28;;
21639;SDS011;10981;45.462;10.974;2023-01-10T06:41:15;17.33;;;4.50;;
21639;SDS011;10981;45.462;10.974;2023-01-10T06:43:44;27.95;;;5.70;;
21639;SDS011;10981;45.462;10.974;2023-01-10T06:46:15;11.82;;;5.15;;
21639;SDS011;10981;45.462;10.974;2023-01-10T06:48:45;10.10;;;3.90;;
21639;SDS011;10981;45.462;10.974;2023-01-10T06:51:14;31.95;;;4.88;;
21639;SDS011;10981;45.462;10.974;2023-01-10T06:53:46;22.20;;;4.35;;
21639;SDS011;10981;45.462;10.974;2023-01-10T06:56:14;18.42;;;4.07;;
21639;SDS011;10981;45.462;10.974;2023-01-10T06:58:42;15.85;;;3.83;;
21639;SDS011;10981;45.462;10.974;2023-01-10T07:01:14;15.90;;;3.97;;
21639;SDS011;10981;45.462;10.974;2023-01-10T07:03:44;13.70;;;3.70;;
21639;SDS011;10981;45.462;10.974;2023-01-10T07:06:14;13.25;;;4.05;;
21639;SDS011;10981;45.462;10.974;2023-01-10T07:09:00;7.07;;;3.63;;
21639;SDS011;10981;45.462;10.974;2023-01-10T07:11:45;11.30;;;3.83;;
21639;SDS011;10981;45.462;10.974;2023-01-10T07:14:30;13.15;;;4.43;;
21639;SDS011;10981;45.462;10.974;2023-01-10T07:16:59;28.98;;;5.18;;
21639;SDS011;10981;45.462;10.974;2023-01-10T07:19:27;11.00;;;3.78;;
21639;SDS011;10981;45.462;10.974;2023-01-10T07:21:55;13.85;;;3.40;;
21639;SDS011;10981;45.462;10.974;2023-01-10T07:24:23;9.52;;;3.53;;
21639;SDS011;10981;45.462;10.974;2023-01-10T07:26:55;13.13;;;4.35;;
21639;SDS011;10981;45.462;10.974;2023-01-10T07:29:23;12.70;;;4.57;;
21639;SDS011;10981;45.462;10.974;2023-01-10T07:31:52;19.42;;;4.07;;
21639;SDS011;10981;45.462;10.974;2023-01-10T07:34:20;20.40;;;4.25;;
21639;SDS011;10981;45.462;10.974;2023-01-10T07:36:48;9.70;;;4.90;;
21639;SDS011;10981;45.462;10.974;2023-01-10T07:39:16;6.85;;;3.03;;
21639;SDS011;10981;45.462;10.974;2023-01-10T07:41:48;12.30;;;4.28;;
21639;SDS011;10981;45.462;10.974;2023-01-10T07:44:16;35.65;;;5.15;;
21639;SDS011;10981;45.462;10.974;2023-01-10T07:46:45;18.42;;;3.95;;
21639;SDS011;10981;45.462;10.974;2023-01-10T07:49:13;9.73;;;3.70;;
21639;SDS011;10981;45.462;10.974;2023-01-10T07:51:41;13.18;;;4.50;;
21639;SDS011;10981;45.462;10.974;2023-01-10T07:54:09;24.20;;;10.25;;
21639;SDS011;10981;45.462;10.974;2023-01-10T07:56:40;22.85;;;10.68;;
21639;SDS011;10981;45.462;10.974;2023-01-10T07:59:09;34.50;;;13.02;;
21639;SDS011;10981;45.462;10.974;2023-01-10T08:01:37;28.75;;;12.82;;
21639;SDS011;10981;45.462;10.974;2023-01-10T08:04:05;17.52;;;9.77;;
21639;SDS011;10981;45.462;10.974;2023-01-10T08:06:35;16.55;;;9.40;;
21639;SDS011;10981;45.462;10.974;2023-01-10T08:09:03;40.75;;;13.57;;
21639;SDS011;10981;45.462;10.974;2023-01-10T08:11:32;40.95;;;14.55;;
21639;SDS011;10981;45.462;10.974;2023-01-10T08:14:01;32.90;;;11.45;;
21639;SDS011;10981;45.462;10.974;2023-01-10T08:16:29;17.73;;;7.25;;
21639;SDS011;10981;45.462;10.974;2023-01-10T08:18:57;17.38;;;6.63;;
21639;SDS011;10981;45.462;10.974;2023-01-10T08:21:25;10.25;;;6.03;;
21639;SDS011;10981;45.462;10.974;2023-01-10T08:23:54;14.90;;;4.80;;
21639;SDS011;10981;45.462;10.974;2023-01-10T08:26:22;11.80;;;3.65;;
21639;SDS011;10981;45.462;10.974;2023-01-10T08:28:50;3.80;;;2.08;;
21639;SDS011;10981;45.462;10.974;2023-01-10T08:31:18;7.10;;;2.38;;
21639;SDS011;10981;45.462;10.974;2023-01-10T08:33:46;3.70;;;1.65;;
21639;SDS011;10981;45.462;10.974;2023-01-10T08:36:18;1.98;;;1.42;;
21639;SDS011;10981;45.462;10.974;2023-01-10T08:38:48;2.92;;;1.45;;
21639;SDS011;10981;45.462;10.974;2023-01-10T08:41:17;5.45;;;1.70;;
21639;SDS011;10981;45.462;10.974;2023-01-10T08:43:47;4.10;;;1.55;;
21639;SDS011;10981;45.462;10.974;2023-01-10T08:46:16;5.72;;;1.55;;
21639;SDS011;10981;45.462;10.974;2023-01-10T08:48:46;3.30;;;1.38;;
21639;SDS011;10981;45.462;10.974;2023-01-10T08:51:16;4.10;;;1.45;;
21639;SDS011;10981;45.462;10.974;2023-01-10T08:53:45;1.70;;;1.30;;
21639;SDS011;10981;45.462;10.974;2023-01-10T08:56:13;3.83;;;1.15;;
21639;SDS011;10981;45.462;10.974;2023-01-10T08:58:42;2.08;;;1.00;;
21639;SDS011;10981;45.462;10.974;2023-01-10T09:01:10;5.35;;;1.55;;
21639;SDS011;10981;45.462;10.974;2023-01-10T09:03:40;2.00;;;1.23;;
21639;SDS011;10981;45.462;10.974;2023-01-10T09:06:09;2.25;;;1.27;;
21639;SDS011;10981;45.462;10.974;2023-01-10T09:08:37;4.63;;;1.63;;
21639;SDS011;10981;45.462;10.974;2023-01-10T09:11:05;4.63;;;1.60;;
21639;SDS011;10981;45.462;10.974;2023-01-10T09:13:34;3.20;;;1.00;;
21639;SDS011;10981;45.462;10.974;2023-01-10T09:16:02;1.20;;;1.00;;
21639;SDS011;10981;45.462;10.974;2023-01-10T09:18:30;4.22;;;1.10;;
21639;SDS011;10981;45.462;10.974;2023-01-10T09:21:02;3.33;;;1.77;;
21639;SDS011;10981;45.462;10.974;2023-01-10T09:23:31;1.80;;;0.70;;
21639;SDS011;10981;45.462;10.974;2023-01-10T09:26:03;2.60;;;1.05;;
21639;SDS011;10981;45.462;10.974;2023-01-10T09:28:31;4.53;;;0.98;;
21639;SDS011;10981;45.462;10.974;2023-01-10T09:30:59;0.60;;;0.52;;
21639;SDS011;10981;45.462;10.974;2023-01-10T09:33:30;3.25;;;0.65;;
21639;SDS011;10981;45.462;10.974;2023-01-10T09:36:12;1.85;;;0.65;;
21639;SDS011;10981;45.462;10.974;2023-01-10T09:38:42;0.40;;;0.40;;
21639;SDS011;10981;45.462;10.974;2023-01-10T09:41:20;1.92;;;0.28;;
21639;SDS011;10981;45.462;10.974;2023-01-10T09:44:05;0.30;;;0.30;;
21639;SDS011;10981;45.462;10.974;2023-01-10T09:46:54;0.20;;;0.20;;
21639;SDS011;10981;45.462;10.974;2023-01-10T09:50:05;3.17;;;0.50;;
21639;SDS011;10981;45.462;10.974;2023-01-10T09:53:08;0.95;;;0.20;;
21639;SDS011;10981;45.462;10.974;2023-01-10T09:55:56;0.30;;;0.30;;
21639;SDS011;10981;45.462;10.974;2023-01-10T09:58:27;2.17;;;0.43;;
21639;SDS011;10981;45.462;10.974;2023-01-10T10:01:05;1.40;;;0.20;;
21639;SDS011;10981;45.462;10.974;2023-01-10T10:03:40;1.30;;;0.30;;
21639;SDS011;10981;45.462;10.974;2023-01-10T10:06:42;2.58;;;0.30;;
21639;SDS011;10981;45.462;10.974;2023-01-10T10:09:16;0.43;;;0.30;;
21639;SDS011;10981;45.462;10.974;2023-01-10T10:17:28;0.32;;;0.20;;
21639;SDS011;10981;45.462;10.974;2023-01-10T10:25:51;0.43;;;0.20;;
21639;SDS011;10981;45.462;10.974;2023-01-10T10:36:54;1.20;;;0.70;;
21639;SDS011;10981;45.462;10.974;2023-01-10T10:42:11;0.40;;;0.40;;
21639;SDS011;10981;45.462;10.974;2023-01-10T10:47:22;1.42;;;0.88;;
21639;SDS011;10981;45.462;10.974;2023-01-10T10:52:34;0.93;;;0.73;;
21639;SDS011;10981;45.462;10.974;2023-01-10T10:55:04;4.22;;;1.05;;
21639;SDS011;10981;45.462;10.974;2023-01-10T10:57:34;3.35;;;1.35;;
21639;SDS011;10981;45.462;10.974;2023-01-10T11:00:18;2.80;;;0.90;;
21639;SDS011;10981;45.462;10.974;2023-01-10T11:02:59;2.80;;;0.60;;
21639;SDS011;10981;45.462;10.974;2023-01-10T11:05:35;2.90;;;1.50;;
21639;SDS011;10981;45.462;10.974;2023-01-10T11:08:09;2.28;;;1.00;;
21639;SDS011;10981;45.462;10.974;2023-01-10T11:10:54;2.90;;;0.65;;
21639;SDS011;10981;45.462;10.974;2023-01-10T11:16:02;1.55;;;0.30;;
21639;SDS011;10981;45.462;10.974;2023-01-10T11:18:32;0.75;;;0.25;;
21639;SDS011;10981;45.462;10.974;2023-01-10T11:21:10;0.45;;;0.40;;
21639;SDS011;10981;45.462;10.974;2023-01-10T11:29:07;4.90;;;0.40;;
21639;SDS011;10981;45.462;10.974;2023-01-10T11:31:48;0.10;;;0.10;;
21639;SDS011;10981;45.462;10.974;2023-01-10T11:34:21;0.95;;;0.20;;
21639;SDS011;10981;45.462;10.974;2023-01-10T11:37:03;0.75;;;0.20;;
21639;SDS011;10981;45.462;10.974;2023-01-10T11:39:43;0.22;;;0.20;;
21639;SDS011;10981;45.462;10.974;2023-01-10T11:42:28;0.38;;;0.25;;
21639;SDS011;10981;45.462;10.974;2023-01-10T11:50:50;1.45;;;0.20;;
21639;SDS011;10981;45.462;10.974;2023-01-10T11:53:27;0.15;;;0.15;;
21639;SDS011;10981;45.462;10.974;2023-01-10T11:55:58;0.68;;;0.40;;
21639;SDS011;10981;45.462;10.974;2023-01-10T11:58:31;0.32;;;0.30;;
21639;SDS011;10981;45.462;10.974;2023-01-10T12:01:00;0.20;;;0.20;;
21639;SDS011;10981;45.462;10.974;2023-01-10T12:03:35;0.40;;;0.20;;
21639;SDS011;10981;45.462;10.974;2023-01-10T12:06:07;2.10;;;0.80;;
21639;SDS011;10981;45.462;10.974;2023-01-10T12:08:40;0.60;;;0.30;;
21639;SDS011;10981;45.462;10.974;2023-01-10T12:13:58;5.45;;;1.52;;
21639;SDS011;10981;45.462;10.974;2023-01-10T12:16:29;0.22;;;0.22;;
21639;SDS011;10981;45.462;10.974;2023-01-10T12:19:03;2.45;;;0.45;;
21639;SDS011;10981;45.462;10.974;2023-01-10T12:21:41;0.10;;;0.10;;
21639;SDS011;10981;45.462;10.974;2023-01-10T12:24:12;0.22;;;0.22;;
21639;SDS011;10981;45.462;10.974;2023-01-10T12:26:47;1.15;;;0.38;;
21639;SDS011;10981;45.462;10.974;2023-01-10T12:29:24;0.68;;;0.40;;
21639;SDS011;10981;45.462;10.974;2023-01-10T12:32:01;0.20;;;0.20;;
21639;SDS011;10981;45.462;10.974;2023-01-10T12:34:37;0.35;;;0.22;;
21639;SDS011;10981;45.462;10.974;2023-01-10T12:45:45;2.60;;;0.95;;
21639;SDS011;10981;45.462;10.974;2023-01-10T12:48:49;0.50;;;0.40;;
21639;SDS011;10981;45.462;10.974;2023-01-10T12:51:33;3.72;;;0.50;;
21639;SDS011;10981;45.462;10.974;2023-01-10T12:54:02;0.30;;;0.30;;
21639;SDS011;10981;45.462;10.974;2023-01-10T12:56:44;0.80;;;0.32;;
21639;SDS011;10981;45.462;10.974;2023-01-10T13:02:21;0.32;;;0.30;;
21639;SDS011;10981;45.462;10.974;2023-01-10T13:04:55;0.30;;;0.20;;
21639;SDS011;10981;45.462;10.974;2023-01-10T13:07:28;1.50;;;0.40;;
21639;SDS011;10981;45.462;10.974;2023-01-10T13:10:01;0.75;;;0.30;;
21639;SDS011;10981;45.462;10.974;2023-01-10T13:12:40;0.30;;;0.30;;
21639;SDS011;10981;45.462;10.974;2023-01-10T13:15:33;0.50;;;0.50;;
21639;SDS011;10981;45.462;10.974;2023-01-10T13:18:22;0.20;;;0.20;;
21639;SDS011;10981;45.462;10.974;2023-01-10T13:23:48;2.85;;;0.30;;
21639;SDS011;10981;45.462;10.974;2023-01-10T13:26:26;2.30;;;0.60;;
21639;SDS011;10981;45.462;10.974;2023-01-10T13:29:16;0.80;;;0.50;;
21639;SDS011;10981;45.462;10.974;2023-01-10T13:31:52;1.25;;;0.43;;
21639;SDS011;10981;45.462;10.974;2023-01-10T13:34:31;1.05;;;0.40;;
21639;SDS011;10981;45.462;10.974;2023-01-10T13:37:02;1.48;;;0.30;;
21639;SDS011;10981;45.462;10.974;2023-01-10T13:39:39;0.25;;;0.20;;
21639;SDS011;10981;45.462;10.974;2023-01-10T13:52:53;3.50;;;0.85;;
21639;SDS011;10981;45.462;10.974;2023-01-10T13:58:48;6.75;;;1.73;;
21639;SDS011;10981;45.462;10.974;2023-01-10T14:01:21;2.63;;;1.10;;
21639;SDS011;10981;45.462;10.974;2023-01-10T14:06:52;0.77;;;0.40;;
21639;SDS011;10981;45.462;10.974;2023-01-10T14:12:00;0.60;;;0.60;;
21639;SDS011;10981;45.462;10.974;2023-01-10T14:22:31;0.40;;;0.32;;
21639;SDS011;10981;45.462;10.974;2023-01-10T14:25:03;1.92;;;0.70;;
21639;SDS011;10981;45.462;10.974;2023-01-10T14:27:45;1.65;;;0.30;;
21639;SDS011;10981;45.462;10.974;2023-01-10T14:30:18;0.30;;;0.30;;
21639;SDS011;10981;45.462;10.974;2023-01-10T14:33:12;0.35;;;0.28;;
21639;SDS011;10981;45.462;10.974;2023-01-10T14:35:46;1.90;;;0.52;;
21639;SDS011;10981;45.462;10.974;2023-01-10T14:38:38;2.50;;;0.60;;
21639;SDS011;10981;45.462;10.974;2023-01-10T14:41:11;0.55;;;0.47;;
21639;SDS011;10981;45.462;10.974;2023-01-10T14:43:52;1.48;;;1.38;;
21639;SDS011;10981;45.462;10.974;2023-01-10T14:46:47;0.95;;;0.52;;
21639;SDS011;10981;45.462;10.974;2023-01-10T14:49:27;4.22;;;0.60;;
21639;SDS011;10981;45.462;10.974;2023-01-10T14:54:52;1.50;;;0.43;;
21639;SDS011;10981;45.462;10.974;2023-01-10T14:57:29;4.32;;;0.63;;
21639;SDS011;10981;45.462;10.974;2023-01-10T15:00:02;4.38;;;0.88;;
21639;SDS011;10981;45.462;10.974;2023-01-10T15:02:31;1.73;;;0.60;;
21639;SDS011;10981;45.462;10.974;2023-01-10T15:05:07;4.40;;;0.80;;
21639;SDS011;10981;45.462;10.974;2023-01-10T15:10:52;2.05;;;0.60;;
21639;SDS011;10981;45.462;10.974;2023-01-10T15:13:34;3.58;;;1.20;;
21639;SDS011;10981;45.462;10.974;2023-01-10T15:16:10;2.58;;;1.13;;
21639;SDS011;10981;45.462;10.974;2023-01-10T15:18:49;4.13;;;1.00;;
21639;SDS011;10981;45.462;10.974;2023-01-10T15:21:17;2.63;;;0.68;;
21639;SDS011;10981;45.462;10.974;2023-01-10T15:23:48;1.38;;;0.73;;
21639;SDS011;10981;45.462;10.974;2023-01-10T15:29:15;2.00;;;0.60;;
21639;SDS011;10981;45.462;10.974;2023-01-10T15:31:48;6.85;;;0.80;;
21639;SDS011;10981;45.462;10.974;2023-01-10T15:34:18;2.67;;;0.80;;
21639;SDS011;10981;45.462;10.974;2023-01-10T15:36:49;2.47;;;0.65;;
21639;SDS011;10981;45.462;10.974;2023-01-10T15:39:27;1.73;;;1.63;;
21639;SDS011;10981;45.462;10.974;2023-01-10T15:42:00;1.13;;;0.50;;
21639;SDS011;10981;45.462;10.974;2023-01-10T15:44:40;1.88;;;0.40;;
21639;SDS011;10981;45.462;10.974;2023-01-10T15:50:18;1.15;;;0.50;;
21639;SDS011;10981;45.462;10.974;2023-01-10T15:52:48;3.22;;;0.88;;
21639;SDS011;10981;45.462;10.974;2023-01-10T16:00:56;2.72;;;0.88;;
21639;SDS011;10981;45.462;10.974;2023-01-10T16:03:28;1.88;;;1.08;;
21639;SDS011;10981;45.462;10.974;2023-01-10T16:06:05;4.13;;;0.82;;
21639;SDS011;10981;45.462;10.974;2023-01-10T16:08:46;3.97;;;1.00;;
21639;SDS011;10981;45.462;10.974;2023-01-10T16:11:17;2.72;;;1.20;;
21639;SDS011;10981;45.462;10.974;2023-01-10T16:14:09;2.50;;;1.47;;
21639;SDS011;10981;45.462;10.974;2023-01-10T16:16:37;17.20;;;1.98;;
21639;SDS011;10981;45.462;10.974;2023-01-10T16:19:06;1.45;;;0.95;;
21639;SDS011;10981;45.462;10.974;2023-01-10T16:21:37;3.42;;;1.17;;
21639;SDS011;10981;45.462;10.974;2023-01-10T16:24:20;3.95;;;1.27;;
21639;SDS011;10981;45.462;10.974;2023-01-10T16:26:51;5.90;;;1.43;;
21639;SDS011;10981;45.462;10.974;2023-01-10T16:29:21;3.08;;;1.10;;
21639;SDS011;10981;45.462;10.974;2023-01-10T16:31:50;3.67;;;1.20;;
21639;SDS011;10981;45.462;10.974;2023-01-10T16:34:19;4.65;;;1.63;;
21639;SDS011;10981;45.462;10.974;2023-01-10T16:36:48;3.78;;;1.52;;
21639;SDS011;10981;45.462;10.974;2023-01-10T16:39:17;4.90;;;2.13;;
21639;SDS011;10981;45.462;10.974;2023-01-10T16:41:47;5.15;;;2.00;;
21639;SDS011;10981;45.462;10.974;2023-01-10T16:44:34;4.97;;;1.90;;
21639;SDS011;10981;45.462;10.974;2023-01-10T16:47:02;7.35;;;2.15;;
21639;SDS011;10981;45.462;10.974;2023-01-10T16:49:33;8.23;;;3.05;;
21639;SDS011;10981;45.462;10.974;2023-01-10T16:52:01;5.78;;;1.60;;
21639;SDS011;10981;45.462;10.974;2023-01-10T16:54:30;2.92;;;1.33;;
21639;SDS011;10981;45.462;10.974;2023-01-10T16:57:01;4.03;;;1.70;;
21639;SDS011;10981;45.462;10.974;2023-01-10T16:59:29;7.22;;;2.22;;
21639;SDS011;10981;45.462;10.974;2023-01-10T17:01:57;7.10;;;3.10;;
21639;SDS011;10981;45.462;10.974;2023-01-10T17:04:27;7.20;;;2.28;;
21639;SDS011;10981;45.462;10.974;2023-01-10T17:06:58;4.13;;;1.38;;
21639;SDS011;10981;45.462;10.974;2023-01-10T17:09:31;2.45;;;1.42;;
21639;SDS011;10981;45.462;10.974;2023-01-10T17:12:04;2.97;;;1.80;;
21639;SDS011;10981;45.462;10.974;2023-01-10T17:14:38;3.50;;;1.85;;
21639;SDS011;10981;45.462;10.974;2023-01-10T17:17:08;7.28;;;2.05;;
21639;SDS011;10981;45.462;10.974;2023-01-10T17:19:40;7.72;;;1.83;;
21639;SDS011;10981;45.462;10.974;2023-01-10T17:22:10;4.55;;;1.10;;
21639;SDS011;10981;45.462;10.974;2023-01-10T17:24:38;0.98;;;0.55;;
21639;SDS011;10981;45.462;10.974;2023-01-10T17:27:07;1.25;;;0.85;;
21639;SDS011;10981;45.462;10.974;2023-01-10T17:29:35;1.27;;;0.80;;
21639;SDS011;10981;45.462;10.974;2023-01-10T17:32:03;1.77;;;0.90;;
21639;SDS011;10981;45.462;10.974;2023-01-10T17:34:32;0.82;;;0.80;;
21639;SDS011;10981;45.462;10.974;2023-01-10T17:37:04;1.70;;;1.08;;
21639;SDS011;10981;45.462;10.974;2023-01-10T17:39:32;5.55;;;1.40;;